Terminal Aerodrome Forecast
Issued by NWS

Home | Current Version | Previous Version | Graphics & Text | Print | Product List | Glossary On
Versions: 1 2 3 4 5 6 7 8 9 10 11 12 13 14 15 16 17 18 19 20 21 22 23 24 25
000
FTUS43 KLSX 170500
TAFSUS
TAF
KSUS 170527Z 1706/1806 30008KT P6SM OVC020
     FM171400 30007KT P6SM BKN100
     FM172100 VRB05KT P6SM OVC080=

USA.gov is the U.S. government's official web portal to all federal, state and local government web resources and services.